sensor_id;sensor_type;location;lat;lon;timestamp;P1;durP1;ratioP1;P2;durP2;ratioP2
62535;SDS011;63050;47.514;18.920;2022-10-26T00:03:41;2.60;;;1.80;;
62535;SDS011;63050;47.514;18.920;2022-10-26T00:08:45;2.70;;;1.40;;
62535;SDS011;63050;47.514;18.920;2022-10-26T00:13:46;3.00;;;1.80;;
62535;SDS011;63050;47.514;18.920;2022-10-26T00:18:48;2.50;;;1.20;;
62535;SDS011;63050;47.514;18.920;2022-10-26T00:23:49;3.10;;;1.40;;
62535;SDS011;63050;47.514;18.920;2022-10-26T00:28:53;2.20;;;1.40;;
62535;SDS011;63050;47.514;18.920;2022-10-26T00:33:56;2.50;;;1.50;;
62535;SDS011;63050;47.514;18.920;2022-10-26T00:38:57;2.30;;;1.30;;
62535;SDS011;63050;47.514;18.920;2022-10-26T00:43:58;2.10;;;1.20;;
62535;SDS011;63050;47.514;18.920;2022-10-26T00:49:04;2.70;;;1.10;;
62535;SDS011;63050;47.514;18.920;2022-10-26T00:54:14;4.50;;;1.60;;
62535;SDS011;63050;47.514;18.920;2022-10-26T00:59:19;2.30;;;1.10;;
62535;SDS011;63050;47.514;18.920;2022-10-26T01:04:21;2.30;;;1.30;;
62535;SDS011;63050;47.514;18.920;2022-10-26T01:09:21;2.00;;;1.10;;
62535;SDS011;63050;47.514;18.920;2022-10-26T01:14:23;2.80;;;1.00;;
62535;SDS011;63050;47.514;18.920;2022-10-26T01:19:36;2.30;;;1.00;;
62535;SDS011;63050;47.514;18.920;2022-10-26T01:30:09;2.30;;;1.00;;
62535;SDS011;63050;47.514;18.920;2022-10-26T01:35:21;2.00;;;1.30;;
62535;SDS011;63050;47.514;18.920;2022-10-26T01:40:41;3.90;;;3.00;;
62535;SDS011;63050;47.514;18.920;2022-10-26T01:45:46;1.80;;;1.00;;
62535;SDS011;63050;47.514;18.920;2022-10-26T01:50:49;3.60;;;1.20;;
62535;SDS011;63050;47.514;18.920;2022-10-26T01:55:52;1.80;;;1.10;;
62535;SDS011;63050;47.514;18.920;2022-10-26T02:01:05;2.40;;;1.00;;
62535;SDS011;63050;47.514;18.920;2022-10-26T02:11:52;1.90;;;1.30;;
62535;SDS011;63050;47.514;18.920;2022-10-26T02:16:53;1.90;;;1.10;;
62535;SDS011;63050;47.514;18.920;2022-10-26T02:27:25;1.30;;;0.90;;
62535;SDS011;63050;47.514;18.920;2022-10-26T02:32:30;2.40;;;1.20;;
62535;SDS011;63050;47.514;18.920;2022-10-26T02:37:33;2.50;;;0.90;;
62535;SDS011;63050;47.514;18.920;2022-10-26T02:42:36;2.00;;;1.00;;
62535;SDS011;63050;47.514;18.920;2022-10-26T02:47:40;2.20;;;1.30;;
62535;SDS011;63050;47.514;18.920;2022-10-26T02:52:56;3.70;;;1.40;;
62535;SDS011;63050;47.514;18.920;2022-10-26T02:58:13;2.80;;;1.30;;
62535;SDS011;63050;47.514;18.920;2022-10-26T03:03:18;2.60;;;1.10;;
62535;SDS011;63050;47.514;18.920;2022-10-26T03:08:20;2.60;;;1.30;;
62535;SDS011;63050;47.514;18.920;2022-10-26T03:13:20;2.20;;;1.30;;
62535;SDS011;63050;47.514;18.920;2022-10-26T03:18:21;2.40;;;1.20;;
62535;SDS011;63050;47.514;18.920;2022-10-26T03:23:22;2.50;;;1.30;;
62535;SDS011;63050;47.514;18.920;2022-10-26T03:28:23;2.20;;;1.00;;
62535;SDS011;63050;47.514;18.920;2022-10-26T03:33:24;2.00;;;0.80;;
62535;SDS011;63050;47.514;18.920;2022-10-26T03:38:24;1.80;;;1.00;;
62535;SDS011;63050;47.514;18.920;2022-10-26T03:43:25;1.70;;;1.00;;
62535;SDS011;63050;47.514;18.920;2022-10-26T03:48:26;1.80;;;1.20;;
62535;SDS011;63050;47.514;18.920;2022-10-26T03:53:27;2.10;;;1.20;;
62535;SDS011;63050;47.514;18.920;2022-10-26T03:58:28;5.00;;;1.40;;
62535;SDS011;63050;47.514;18.920;2022-10-26T04:03:29;2.90;;;1.30;;
62535;SDS011;63050;47.514;18.920;2022-10-26T04:08:30;4.10;;;2.40;;
62535;SDS011;63050;47.514;18.920;2022-10-26T04:13:30;3.60;;;1.60;;
62535;SDS011;63050;47.514;18.920;2022-10-26T04:18:31;4.10;;;1.90;;
62535;SDS011;63050;47.514;18.920;2022-10-26T04:23:33;4.20;;;1.90;;
62535;SDS011;63050;47.514;18.920;2022-10-26T04:28:34;3.00;;;1.80;;
62535;SDS011;63050;47.514;18.920;2022-10-26T04:33:35;3.20;;;1.70;;
62535;SDS011;63050;47.514;18.920;2022-10-26T04:38:36;3.30;;;1.70;;
62535;SDS011;63050;47.514;18.920;2022-10-26T04:43:36;8.60;;;2.00;;
62535;SDS011;63050;47.514;18.920;2022-10-26T04:48:37;3.20;;;1.80;;
62535;SDS011;63050;47.514;18.920;2022-10-26T04:53:38;4.00;;;1.40;;
62535;SDS011;63050;47.514;18.920;2022-10-26T04:58:39;4.80;;;1.90;;
62535;SDS011;63050;47.514;18.920;2022-10-26T05:03:39;6.10;;;1.50;;
62535;SDS011;63050;47.514;18.920;2022-10-26T05:08:40;4.10;;;2.50;;
62535;SDS011;63050;47.514;18.920;2022-10-26T05:13:41;4.40;;;2.70;;
62535;SDS011;63050;47.514;18.920;2022-10-26T05:18:42;7.30;;;2.90;;
62535;SDS011;63050;47.514;18.920;2022-10-26T05:23:42;4.60;;;2.50;;
62535;SDS011;63050;47.514;18.920;2022-10-26T05:28:43;4.60;;;2.50;;
62535;SDS011;63050;47.514;18.920;2022-10-26T05:33:47;3.70;;;2.30;;
62535;SDS011;63050;47.514;18.920;2022-10-26T05:38:48;3.60;;;2.20;;
62535;SDS011;63050;47.514;18.920;2022-10-26T05:43:49;6.00;;;2.20;;
62535;SDS011;63050;47.514;18.920;2022-10-26T05:48:50;4.00;;;2.60;;
62535;SDS011;63050;47.514;18.920;2022-10-26T05:53:51;6.30;;;2.40;;
62535;SDS011;63050;47.514;18.920;2022-10-26T05:58:55;11.40;;;2.50;;
62535;SDS011;63050;47.514;18.920;2022-10-26T06:09:13;10.50;;;2.70;;
62535;SDS011;63050;47.514;18.920;2022-10-26T06:14:15;11.10;;;3.20;;
62535;SDS011;63050;47.514;18.920;2022-10-26T06:35:03;4.40;;;2.00;;
62535;SDS011;63050;47.514;18.920;2022-10-26T06:40:12;6.10;;;2.20;;
62535;SDS011;63050;47.514;18.920;2022-10-26T06:45:15;4.30;;;2.00;;
62535;SDS011;63050;47.514;18.920;2022-10-26T06:55:30;9.00;;;4.70;;
62535;SDS011;63050;47.514;18.920;2022-10-26T07:00:39;6.90;;;3.70;;
62535;SDS011;63050;47.514;18.920;2022-10-26T07:05:41;10.90;;;3.50;;
62535;SDS011;63050;47.514;18.920;2022-10-26T07:10:43;6.40;;;3.70;;
62535;SDS011;63050;47.514;18.920;2022-10-26T07:15:44;6.10;;;3.40;;
62535;SDS011;63050;47.514;18.920;2022-10-26T07:20:45;3.60;;;2.50;;
62535;SDS011;63050;47.514;18.920;2022-10-26T07:25:46;3.50;;;2.60;;
62535;SDS011;63050;47.514;18.920;2022-10-26T07:30:47;6.20;;;2.40;;
62535;SDS011;63050;47.514;18.920;2022-10-26T07:35:47;4.90;;;2.00;;
62535;SDS011;63050;47.514;18.920;2022-10-26T07:40:48;3.80;;;1.90;;
62535;SDS011;63050;47.514;18.920;2022-10-26T07:45:49;2.60;;;2.20;;
62535;SDS011;63050;47.514;18.920;2022-10-26T07:50:51;2.60;;;2.20;;
62535;SDS011;63050;47.514;18.920;2022-10-26T07:55:52;4.60;;;2.10;;
62535;SDS011;63050;47.514;18.920;2022-10-26T08:00:54;5.00;;;2.70;;
62535;SDS011;63050;47.514;18.920;2022-10-26T08:05:56;3.90;;;2.60;;
62535;SDS011;63050;47.514;18.920;2022-10-26T08:10:57;4.60;;;2.20;;
62535;SDS011;63050;47.514;18.920;2022-10-26T08:15:59;6.10;;;3.10;;
62535;SDS011;63050;47.514;18.920;2022-10-26T08:21:01;5.10;;;3.60;;
62535;SDS011;63050;47.514;18.920;2022-10-26T08:26:06;8.80;;;5.00;;
62535;SDS011;63050;47.514;18.920;2022-10-26T08:31:07;7.20;;;4.90;;
62535;SDS011;63050;47.514;18.920;2022-10-26T08:36:08;8.20;;;5.10;;
62535;SDS011;63050;47.514;18.920;2022-10-26T08:41:09;9.10;;;7.00;;
62535;SDS011;63050;47.514;18.920;2022-10-26T08:46:11;9.50;;;6.30;;
62535;SDS011;63050;47.514;18.920;2022-10-26T08:51:15;7.60;;;5.20;;
62535;SDS011;63050;47.514;18.920;2022-10-26T09:01:32;9.20;;;5.70;;
62535;SDS011;63050;47.514;18.920;2022-10-26T09:12:00;8.00;;;6.10;;
62535;SDS011;63050;47.514;18.920;2022-10-26T09:17:10;9.10;;;6.90;;
62535;SDS011;63050;47.514;18.920;2022-10-26T09:27:34;9.40;;;6.80;;
62535;SDS011;63050;47.514;18.920;2022-10-26T09:32:41;9.00;;;5.70;;
62535;SDS011;63050;47.514;18.920;2022-10-26T09:37:46;9.20;;;5.70;;
62535;SDS011;63050;47.514;18.920;2022-10-26T09:43:09;12.70;;;5.60;;
62535;SDS011;63050;47.514;18.920;2022-10-26T09:48:24;9.00;;;5.30;;
62535;SDS011;63050;47.514;18.920;2022-10-26T09:53:26;9.40;;;6.70;;
62535;SDS011;63050;47.514;18.920;2022-10-26T09:58:28;8.60;;;5.80;;
62535;SDS011;63050;47.514;18.920;2022-10-26T10:03:31;9.80;;;5.10;;
62535;SDS011;63050;47.514;18.920;2022-10-26T10:08:32;14.30;;;5.50;;
62535;SDS011;63050;47.514;18.920;2022-10-26T10:13:43;10.10;;;6.40;;
62535;SDS011;63050;47.514;18.920;2022-10-26T10:18:51;8.70;;;5.30;;
62535;SDS011;63050;47.514;18.920;2022-10-26T10:23:56;8.90;;;5.70;;
62535;SDS011;63050;47.514;18.920;2022-10-26T10:28:58;9.50;;;5.50;;
62535;SDS011;63050;47.514;18.920;2022-10-26T10:34:02;9.40;;;5.60;;
62535;SDS011;63050;47.514;18.920;2022-10-26T10:44:29;9.20;;;6.00;;
62535;SDS011;63050;47.514;18.920;2022-10-26T10:49:31;8.10;;;5.10;;
62535;SDS011;63050;47.514;18.920;2022-10-26T10:54:32;11.50;;;5.50;;
62535;SDS011;63050;47.514;18.920;2022-10-26T11:00:08;9.60;;;5.50;;
62535;SDS011;63050;47.514;18.920;2022-10-26T11:10:19;8.00;;;5.00;;
62535;SDS011;63050;47.514;18.920;2022-10-26T11:15:21;6.70;;;4.50;;
62535;SDS011;63050;47.514;18.920;2022-10-26T11:20:24;6.30;;;4.00;;
62535;SDS011;63050;47.514;18.920;2022-10-26T11:25:27;8.80;;;4.70;;
62535;SDS011;63050;47.514;18.920;2022-10-26T11:30:30;7.90;;;4.10;;
62535;SDS011;63050;47.514;18.920;2022-10-26T11:35:35;8.30;;;4.60;;
62535;SDS011;63050;47.514;18.920;2022-10-26T11:46:08;5.30;;;3.70;;
62535;SDS011;63050;47.514;18.920;2022-10-26T11:56:41;6.20;;;4.00;;
62535;SDS011;63050;47.514;18.920;2022-10-26T12:01:46;5.10;;;3.70;;
62535;SDS011;63050;47.514;18.920;2022-10-26T12:06:50;7.00;;;3.50;;
62535;SDS011;63050;47.514;18.920;2022-10-26T12:11:59;4.30;;;2.70;;
62535;SDS011;63050;47.514;18.920;2022-10-26T12:22:15;4.60;;;3.00;;
62535;SDS011;63050;47.514;18.920;2022-10-26T12:37:36;5.50;;;2.90;;
62535;SDS011;63050;47.514;18.920;2022-10-26T12:42:39;4.70;;;2.70;;
62535;SDS011;63050;47.514;18.920;2022-10-26T13:08:52;5.40;;;3.60;;
62535;SDS011;63050;47.514;18.920;2022-10-26T13:13:56;6.50;;;4.10;;
62535;SDS011;63050;47.514;18.920;2022-10-26T13:19:01;7.50;;;3.70;;
62535;SDS011;63050;47.514;18.920;2022-10-26T13:24:02;5.60;;;3.80;;
62535;SDS011;63050;47.514;18.920;2022-10-26T13:29:07;6.60;;;3.90;;
62535;SDS011;63050;47.514;18.920;2022-10-26T13:34:19;8.10;;;4.10;;
62535;SDS011;63050;47.514;18.920;2022-10-26T13:44:39;7.20;;;5.10;;
62535;SDS011;63050;47.514;18.920;2022-10-26T13:49:44;9.00;;;5.40;;
62535;SDS011;63050;47.514;18.920;2022-10-26T13:54:46;6.30;;;4.50;;
62535;SDS011;63050;47.514;18.920;2022-10-26T13:59:49;11.20;;;5.10;;
62535;SDS011;63050;47.514;18.920;2022-10-26T14:04:52;6.80;;;5.00;;
62535;SDS011;63050;47.514;18.920;2022-10-26T14:09:59;10.70;;;6.50;;
62535;SDS011;63050;47.514;18.920;2022-10-26T14:15:02;8.60;;;5.00;;
62535;SDS011;63050;47.514;18.920;2022-10-26T14:20:06;8.00;;;5.40;;
62535;SDS011;63050;47.514;18.920;2022-10-26T14:30:29;7.60;;;4.40;;
62535;SDS011;63050;47.514;18.920;2022-10-26T14:35:32;10.90;;;4.70;;
62535;SDS011;63050;47.514;18.920;2022-10-26T14:40:36;7.00;;;4.30;;
62535;SDS011;63050;47.514;18.920;2022-10-26T14:45:37;7.90;;;4.50;;
62535;SDS011;63050;47.514;18.920;2022-10-26T14:50:40;7.30;;;4.50;;
62535;SDS011;63050;47.514;18.920;2022-10-26T14:55:45;7.10;;;4.50;;
62535;SDS011;63050;47.514;18.920;2022-10-26T15:01:12;9.40;;;4.00;;
62535;SDS011;63050;47.514;18.920;2022-10-26T15:11:28;5.20;;;4.00;;
62535;SDS011;63050;47.514;18.920;2022-10-26T15:16:30;7.50;;;3.50;;
62535;SDS011;63050;47.514;18.920;2022-10-26T15:21:35;7.10;;;3.60;;
62535;SDS011;63050;47.514;18.920;2022-10-26T15:26:42;7.50;;;3.90;;
62535;SDS011;63050;47.514;18.920;2022-10-26T15:31:43;7.10;;;4.10;;
62535;SDS011;63050;47.514;18.920;2022-10-26T15:36:44;6.60;;;3.40;;
62535;SDS011;63050;47.514;18.920;2022-10-26T15:41:45;8.10;;;4.30;;
62535;SDS011;63050;47.514;18.920;2022-10-26T15:46:47;4.60;;;3.10;;
62535;SDS011;63050;47.514;18.920;2022-10-26T15:51:49;4.90;;;3.30;;
62535;SDS011;63050;47.514;18.920;2022-10-26T15:56:50;7.10;;;3.40;;
62535;SDS011;63050;47.514;18.920;2022-10-26T16:01:50;10.00;;;4.80;;
62535;SDS011;63050;47.514;18.920;2022-10-26T16:06:52;12.60;;;4.80;;
62535;SDS011;63050;47.514;18.920;2022-10-26T16:11:53;7.30;;;4.40;;
62535;SDS011;63050;47.514;18.920;2022-10-26T16:16:54;7.20;;;3.70;;
62535;SDS011;63050;47.514;18.920;2022-10-26T16:21:56;12.20;;;5.00;;
62535;SDS011;63050;47.514;18.920;2022-10-26T16:26:57;8.60;;;5.30;;
62535;SDS011;63050;47.514;18.920;2022-10-26T16:32:00;9.20;;;5.40;;
62535;SDS011;63050;47.514;18.920;2022-10-26T16:37:01;9.20;;;5.70;;
62535;SDS011;63050;47.514;18.920;2022-10-26T16:42:04;11.10;;;5.60;;
62535;SDS011;63050;47.514;18.920;2022-10-26T16:47:06;8.80;;;5.10;;
62535;SDS011;63050;47.514;18.920;2022-10-26T16:52:09;6.00;;;3.90;;
62535;SDS011;63050;47.514;18.920;2022-10-26T16:57:11;9.40;;;3.70;;
62535;SDS011;63050;47.514;18.920;2022-10-26T17:02:14;8.50;;;4.20;;
62535;SDS011;63050;47.514;18.920;2022-10-26T17:07:16;6.40;;;4.40;;
62535;SDS011;63050;47.514;18.920;2022-10-26T17:12:17;8.40;;;3.70;;
62535;SDS011;63050;47.514;18.920;2022-10-26T17:17:19;10.70;;;4.80;;
62535;SDS011;63050;47.514;18.920;2022-10-26T17:22:20;4.30;;;2.80;;
62535;SDS011;63050;47.514;18.920;2022-10-26T17:27:22;5.30;;;3.30;;
62535;SDS011;63050;47.514;18.920;2022-10-26T17:32:23;6.30;;;3.20;;
62535;SDS011;63050;47.514;18.920;2022-10-26T17:37:24;6.00;;;3.20;;
62535;SDS011;63050;47.514;18.920;2022-10-26T17:42:26;4.30;;;2.80;;
62535;SDS011;63050;47.514;18.920;2022-10-26T17:47:27;5.20;;;2.70;;
62535;SDS011;63050;47.514;18.920;2022-10-26T17:52:30;4.70;;;2.70;;
62535;SDS011;63050;47.514;18.920;2022-10-26T17:57:32;5.30;;;2.90;;
62535;SDS011;63050;47.514;18.920;2022-10-26T18:02:34;4.50;;;2.80;;
62535;SDS011;63050;47.514;18.920;2022-10-26T18:07:37;4.80;;;2.90;;
62535;SDS011;63050;47.514;18.920;2022-10-26T18:12:38;6.60;;;2.60;;
62535;SDS011;63050;47.514;18.920;2022-10-26T18:17:41;4.40;;;2.50;;
62535;SDS011;63050;47.514;18.920;2022-10-26T18:22:45;10.30;;;3.80;;
62535;SDS011;63050;47.514;18.920;2022-10-26T18:27:46;8.20;;;3.30;;
62535;SDS011;63050;47.514;18.920;2022-10-26T18:32:48;4.20;;;3.40;;
62535;SDS011;63050;47.514;18.920;2022-10-26T18:37:51;7.00;;;4.60;;
62535;SDS011;63050;47.514;18.920;2022-10-26T18:42:52;7.10;;;4.50;;
62535;SDS011;63050;47.514;18.920;2022-10-26T18:47:53;8.80;;;4.00;;
62535;SDS011;63050;47.514;18.920;2022-10-26T18:52:55;7.60;;;3.70;;
62535;SDS011;63050;47.514;18.920;2022-10-26T18:57:57;6.20;;;3.70;;
62535;SDS011;63050;47.514;18.920;2022-10-26T19:02:58;5.50;;;3.70;;
62535;SDS011;63050;47.514;18.920;2022-10-26T19:07:59;5.10;;;3.90;;
62535;SDS011;63050;47.514;18.920;2022-10-26T19:18:21;4.10;;;2.90;;
62535;SDS011;63050;47.514;18.920;2022-10-26T19:23:22;3.90;;;2.60;;
62535;SDS011;63050;47.514;18.920;2022-10-26T19:28:24;7.60;;;2.90;;
62535;SDS011;63050;47.514;18.920;2022-10-26T19:33:30;5.60;;;3.00;;
62535;SDS011;63050;47.514;18.920;2022-10-26T19:38:32;5.80;;;4.40;;
62535;SDS011;63050;47.514;18.920;2022-10-26T19:43:34;4.90;;;2.90;;
62535;SDS011;63050;47.514;18.920;2022-10-26T19:48:36;6.50;;;3.20;;
62535;SDS011;63050;47.514;18.920;2022-10-26T19:53:39;4.90;;;3.30;;
62535;SDS011;63050;47.514;18.920;2022-10-26T19:58:42;5.40;;;3.60;;
62535;SDS011;63050;47.514;18.920;2022-10-26T20:03:44;5.60;;;3.80;;
62535;SDS011;63050;47.514;18.920;2022-10-26T20:08:46;4.40;;;3.30;;
62535;SDS011;63050;47.514;18.920;2022-10-26T20:13:48;6.50;;;3.70;;
62535;SDS011;63050;47.514;18.920;2022-10-26T20:18:49;6.30;;;3.80;;
62535;SDS011;63050;47.514;18.920;2022-10-26T20:23:51;7.40;;;6.20;;
62535;SDS011;63050;47.514;18.920;2022-10-26T20:28:53;5.40;;;4.10;;
62535;SDS011;63050;47.514;18.920;2022-10-26T20:33:54;9.10;;;7.10;;
62535;SDS011;63050;47.514;18.920;2022-10-26T20:38:56;9.50;;;6.20;;
62535;SDS011;63050;47.514;18.920;2022-10-26T20:43:57;9.80;;;5.80;;
62535;SDS011;63050;47.514;18.920;2022-10-26T20:49:02;8.00;;;5.60;;
62535;SDS011;63050;47.514;18.920;2022-10-26T20:54:16;9.30;;;4.50;;
62535;SDS011;63050;47.514;18.920;2022-10-26T20:59:30;5.10;;;3.70;;
62535;SDS011;63050;47.514;18.920;2022-10-26T21:04:35;6.40;;;4.30;;
62535;SDS011;63050;47.514;18.920;2022-10-26T21:09:36;4.80;;;3.70;;
62535;SDS011;63050;47.514;18.920;2022-10-26T21:14:37;5.20;;;4.10;;
62535;SDS011;63050;47.514;18.920;2022-10-26T21:19:40;4.30;;;3.90;;
62535;SDS011;63050;47.514;18.920;2022-10-26T21:24:41;5.60;;;4.00;;
62535;SDS011;63050;47.514;18.920;2022-10-26T21:29:41;5.90;;;4.20;;
62535;SDS011;63050;47.514;18.920;2022-10-26T21:34:42;5.30;;;4.30;;
62535;SDS011;63050;47.514;18.920;2022-10-26T21:39:43;6.60;;;4.40;;
62535;SDS011;63050;47.514;18.920;2022-10-26T21:44:44;7.40;;;6.20;;
62535;SDS011;63050;47.514;18.920;2022-10-26T21:49:44;6.40;;;4.50;;
62535;SDS011;63050;47.514;18.920;2022-10-26T21:54:45;5.90;;;4.50;;
62535;SDS011;63050;47.514;18.920;2022-10-26T21:59:46;6.10;;;4.30;;
62535;SDS011;63050;47.514;18.920;2022-10-26T22:04:46;6.00;;;4.20;;
62535;SDS011;63050;47.514;18.920;2022-10-26T22:09:47;6.40;;;4.90;;
62535;SDS011;63050;47.514;18.920;2022-10-26T22:14:48;7.40;;;5.10;;
62535;SDS011;63050;47.514;18.920;2022-10-26T22:19:49;7.40;;;5.30;;
62535;SDS011;63050;47.514;18.920;2022-10-26T22:24:50;6.40;;;5.20;;
62535;SDS011;63050;47.514;18.920;2022-10-26T22:29:50;5.50;;;4.90;;
62535;SDS011;63050;47.514;18.920;2022-10-26T22:34:51;7.60;;;5.50;;
62535;SDS011;63050;47.514;18.920;2022-10-26T22:39:52;6.90;;;5.80;;
62535;SDS011;63050;47.514;18.920;2022-10-26T22:44:52;6.20;;;5.40;;
62535;SDS011;63050;47.514;18.920;2022-10-26T22:49:53;8.90;;;6.00;;
62535;SDS011;63050;47.514;18.920;2022-10-26T22:54:54;10.00;;;8.90;;
62535;SDS011;63050;47.514;18.920;2022-10-26T22:59:55;10.20;;;9.20;;
62535;SDS011;63050;47.514;18.920;2022-10-26T23:04:56;10.60;;;9.00;;
62535;SDS011;63050;47.514;18.920;2022-10-26T23:09:56;10.50;;;9.00;;
62535;SDS011;63050;47.514;18.920;2022-10-26T23:14:57;10.80;;;9.70;;
62535;SDS011;63050;47.514;18.920;2022-10-26T23:19:58;10.90;;;9.00;;
62535;SDS011;63050;47.514;18.920;2022-10-26T23:24:58;14.40;;;10.90;;
62535;SDS011;63050;47.514;18.920;2022-10-26T23:29:59;11.20;;;9.00;;
62535;SDS011;63050;47.514;18.920;2022-10-26T23:35:00;12.90;;;10.80;;
62535;SDS011;63050;47.514;18.920;2022-10-26T23:40:01;11.20;;;10.10;;
62535;SDS011;63050;47.514;18.920;2022-10-26T23:45:02;11.60;;;10.50;;
62535;SDS011;63050;47.514;18.920;2022-10-26T23:50:03;11.30;;;10.00;;
62535;SDS011;63050;47.514;18.920;2022-10-26T23:55:04;9.70;;;8.70;;
